Time;durP1;ratioP1;P1;durP2;ratioP2;P2;SDS_P1;SDS_P2;PMS_P1;PMS_P2;Temp;Humidity;BMP_temperature;BMP_pressure;BME280_temperature;BME280_humidity;BME280_pressure;Samples;Min_cycle;Max_cycle;Signal;HPM_P1;HPM_P2
2021/01/08 00:01:29;;;;;;;12.70;9.05;;;1.90;68.90;;;;;;5094921;28;20580;-68
2021/01/08 00:03:56;;;;;;;15.45;8.65;;;1.80;68.50;;;;;;5076196;28;20189;-68
2021/01/08 00:06:22;;;;;;;11.90;8.25;;;1.80;68.50;;;;;;5093662;28;20592;-69
2021/01/08 00:08:50;;;;;;;12.48;8.82;;;1.80;68.70;;;;;;5096429;28;20246;-68
2021/01/08 00:11:20;;;;;;;11.93;8.13;;;1.80;68.60;;;;;;5079451;28;20463;-68
2021/01/08 00:13:47;;;;;;;13.10;7.85;;;1.80;68.70;;;;;;5089001;28;20189;-68
2021/01/08 00:16:13;;;;;;;13.60;8.02;;;1.80;68.80;;;;;;5093741;28;20224;-68
2021/01/08 00:18:40;;;;;;;11.52;7.57;;;1.80;68.70;;;;;;5075753;28;20267;-68
2021/01/08 00:21:07;;;;;;;14.70;8.73;;;1.90;68.60;;;;;;5075046;28;20194;-71
2021/01/08 00:23:33;;;;;;;14.48;9.05;;;1.90;68.70;;;;;;5095792;28;20235;-68
2021/01/08 00:26:01;;;;;;;15.13;8.73;;;1.90;68.30;;;;;;5096135;28;20185;-68
2021/01/08 00:28:27;;;;;;;16.33;9.95;;;1.90;68.70;;;;;;5075920;28;20632;-69
2021/01/08 00:30:54;;;;;;;16.45;9.30;;;1.90;69.50;;;;;;5075407;28;20189;-68
2021/01/08 00:33:21;;;;;;;15.95;8.95;;;1.90;68.70;;;;;;5092696;28;20218;-69
2021/01/08 00:35:48;;;;;;;16.05;10.30;;;1.90;68.80;;;;;;5091788;28;20205;-68
2021/01/08 00:38:14;;;;;;;16.45;10.20;;;1.80;68.40;;;;;;5095667;28;20548;-68
2021/01/08 00:40:41;;;;;;;16.05;8.95;;;1.70;69.00;;;;;;5080710;28;20734;-68
2021/01/08 00:43:08;;;;;;;15.60;8.60;;;1.70;69.40;;;;;;5075223;28;20190;-68
2021/01/08 00:45:35;;;;;;;14.55;8.48;;;1.70;68.60;;;;;;5092316;28;20196;-68
2021/01/08 00:48:02;;;;;;;12.77;7.25;;;1.60;68.50;;;;;;5095431;28;20207;-68
2021/01/08 00:50:29;;;;;;;11.10;8.10;;;1.50;68.00;;;;;;5078902;28;20190;-68
2021/01/08 00:52:55;;;;;;;13.15;7.60;;;1.50;67.80;;;;;;5075105;28;20200;-72
2021/01/08 00:55:22;;;;;;;10.40;6.80;;;1.50;68.50;;;;;;5089407;28;20208;-69
2021/01/08 00:57:49;;;;;;;14.52;7.25;;;1.50;68.70;;;;;;5095134;28;20276;-69
2021/01/08 01:00:17;;;;;;;10.48;6.28;;;1.50;68.60;;;;;;5081047;28;20572;-69
2021/01/08 01:02:44;;;;;;;12.20;7.88;;;1.50;68.80;;;;;;5075040;28;20205;-68
2021/01/08 01:05:11;;;;;;;12.13;7.15;;;1.50;69.00;;;;;;5086752;28;20196;-70
2021/01/08 01:07:38;;;;;;;13.90;7.40;;;1.50;68.80;;;;;;5094690;28;20325;-68
2021/01/08 01:10:06;;;;;;;9.00;5.97;;;1.60;68.50;;;;;;5083638;28;20192;-68
2021/01/08 01:12:32;;;;;;;11.05;7.45;;;1.50;68.50;;;;;;5081202;28;20268;-69
2021/01/08 01:14:59;;;;;;;14.82;8.45;;;1.50;68.70;;;;;;5094770;28;20224;-69
2021/01/08 01:17:26;;;;;;;11.70;7.15;;;1.50;68.60;;;;;;5088932;28;20193;-69
2021/01/08 01:19:54;;;;;;;14.02;7.47;;;1.40;68.90;;;;;;5074637;28;20199;-68
2021/01/08 01:22:20;;;;;;;8.40;6.60;;;1.50;69.10;;;;;;5078530;28;20221;-68
2021/01/08 01:24:53;;;;;;;11.70;7.95;;;1.50;69.20;;;;;;5094755;28;20185;-69
2021/01/08 01:27:20;;;;;;;11.38;7.50;;;1.40;69.10;;;;;;5091200;28;20602;-68
2021/01/08 01:29:47;;;;;;;12.80;6.60;;;1.40;69.20;;;;;;5074376;28;20197;-68
2021/01/08 01:32:14;;;;;;;9.15;6.40;;;1.40;69.30;;;;;;5076004;28;20308;-68
2021/01/08 01:34:42;;;;;;;10.43;7.07;;;1.40;69.10;;;;;;5094206;28;20277;-68
2021/01/08 01:37:08;;;;;;;9.77;6.75;;;1.40;68.90;;;;;;5093309;28;20189;-69
2021/01/08 01:39:35;;;;;;;12.30;7.90;;;1.40;69.10;;;;;;5074208;28;20639;-69
2021/01/08 01:42:01;;;;;;;10.57;6.50;;;1.40;69.10;;;;;;5091686;28;20196;-68
2021/01/08 01:44:28;;;;;;;9.98;7.22;;;1.40;69.30;;;;;;5094376;28;20193;-68
2021/01/08 01:46:54;;;;;;;11.25;7.13;;;1.30;69.90;;;;;;5077499;28;20197;-68
2021/01/08 01:49:21;;;;;;;11.57;7.55;;;1.30;70.50;;;;;;5074132;28;20190;-68
2021/01/08 01:51:50;;;;;;;14.13;8.95;;;1.40;70.20;;;;;;5088376;28;20177;-68
2021/01/08 01:54:16;;;;;;;16.23;9.60;;;1.30;69.80;;;;;;5094492;28;20193;-68
2021/01/08 01:56:43;;;;;;;14.60;8.25;;;1.30;70.00;;;;;;5080103;28;20193;-69
2021/01/08 01:59:09;;;;;;;15.48;8.35;;;1.30;69.40;;;;;;5073811;28;20610;-68
2021/01/08 02:01:36;;;;;;;12.65;6.93;;;1.30;69.20;;;;;;5085265;28;20645;-68
2021/01/08 02:04:03;;;;;;;12.43;7.25;;;1.20;68.60;;;;;;5093978;28;20185;-68
2021/01/08 02:06:36;;;;;;;10.20;6.07;;;1.30;68.40;;;;;;5082927;28;20243;-68
2021/01/08 02:09:13;;;;;;;10.68;6.80;;;1.30;67.70;;;;;;5081486;28;20294;-68
2021/01/08 02:11:45;;;;;;;12.30;7.97;;;1.20;68.10;;;;;;5093620;28;20279;-69
2021/01/08 02:14:18;;;;;;;13.15;8.40;;;1.30;67.90;;;;;;5084302;28;20178;-69
2021/01/08 02:16:45;;;;;;;14.52;9.20;;;1.20;68.30;;;;;;5073509;28;20223;-68
2021/01/08 02:19:20;;;;;;;14.52;7.60;;;1.30;68.40;;;;;;5080436;28;20193;-68
2021/01/08 02:21:52;;;;;;;11.15;7.95;;;1.30;68.40;;;;;;5093712;28;20192;-70
2021/01/08 02:24:26;;;;;;;14.90;8.07;;;1.30;67.90;;;;;;5084819;28;20235;-69
2021/01/08 02:26:54;;;;;;;11.52;7.18;;;1.20;68.10;;;;;;5073351;28;20185;-69
2021/01/08 02:29:21;;;;;;;11.23;6.72;;;1.20;68.40;;;;;;5080703;28;20650;-69
2021/01/08 02:31:48;;;;;;;10.77;6.72;;;1.10;68.40;;;;;;5093604;28;20193;-68
2021/01/08 02:34:15;;;;;;;10.20;7.10;;;1.20;67.80;;;;;;5082275;28;20351;-68
2021/01/08 02:36:45;;;;;;;9.35;7.25;;;1.10;67.80;;;;;;5073132;28;20209;-68
2021/01/08 02:39:13;;;;;;;11.23;7.10;;;1.10;67.70;;;;;;5082327;28;20181;-68
2021/01/08 02:41:43;;;;;;;9.55;6.28;;;1.20;68.20;;;;;;5093294;28;20189;-68
2021/01/08 02:44:12;;;;;;;11.30;6.90;;;1.30;68.10;;;;;;5091336;28;20556;-69
2021/01/08 02:46:39;;;;;;;11.93;8.30;;;1.30;68.20;;;;;;5093333;28;20587;-68
2021/01/08 02:49:06;;;;;;;12.38;7.47;;;1.40;68.00;;;;;;5084392;28;20204;-68
2021/01/08 02:51:32;;;;;;;10.82;7.07;;;1.50;68.00;;;;;;5072634;28;20200;-68
2021/01/08 02:53:59;;;;;;;8.95;6.60;;;1.50;67.70;;;;;;5079160;28;20181;-68
2021/01/08 02:56:33;;;;;;;9.82;7.05;;;1.50;67.70;;;;;;5093169;28;20620;-69
2021/01/08 02:59:01;;;;;;;10.55;7.15;;;1.50;67.50;;;;;;5086497;28;20259;-68
2021/01/08 03:01:29;;;;;;;16.52;7.93;;;1.60;67.80;;;;;;5074806;28;20540;-68
2021/01/08 03:03:59;;;;;;;13.68;8.18;;;1.60;67.60;;;;;;5092982;28;20189;-72
2021/01/08 03:06:28;;;;;;;10.32;6.63;;;1.60;67.50;;;;;;5090880;28;20250;-69
2021/01/08 03:08:56;;;;;;;10.40;7.25;;;1.60;67.00;;;;;;5072763;28;20240;-69
2021/01/08 03:11:22;;;;;;;11.57;7.13;;;1.60;67.20;;;;;;5072752;28;20189;-68
2021/01/08 03:13:49;;;;;;;10.18;7.25;;;1.60;67.00;;;;;;5080162;28;20197;-68
2021/01/08 03:16:16;;;;;;;10.80;6.78;;;1.60;66.70;;;;;;5072264;28;20699;-68
2021/01/08 03:18:44;;;;;;;10.82;8.50;;;1.60;67.10;;;;;;5091895;28;20189;-69
2021/01/08 03:21:11;;;;;;;12.50;7.93;;;1.70;67.00;;;;;;5092937;28;20224;-69
2021/01/08 03:23:37;;;;;;;9.82;7.57;;;1.70;66.80;;;;;;5073634;28;20182;-68
2021/01/08 03:26:03;;;;;;;14.27;8.45;;;1.70;66.50;;;;;;5072549;28;20193;-68
2021/01/08 03:28:30;;;;;;;14.65;9.40;;;1.70;66.10;;;;;;5072932;28;20636;-68
2021/01/08 03:30:57;;;;;;;15.68;8.98;;;1.50;66.10;;;;;;5072050;28;20204;-69
2021/01/08 03:33:23;;;;;;;14.75;8.23;;;1.40;66.40;;;;;;5086872;28;20192;-69
2021/01/08 03:35:51;;;;;;;15.15;8.10;;;1.40;66.70;;;;;;5092621;28;20228;-68
2021/01/08 03:38:18;;;;;;;15.38;8.95;;;1.40;66.60;;;;;;5078676;28;20276;-68
2021/01/08 03:40:44;;;;;;;15.48;9.32;;;1.50;66.90;;;;;;5076699;28;20723;-68
2021/01/08 03:43:11;;;;;;;15.88;10.13;;;1.60;66.50;;;;;;5092392;28;20203;-68
2021/01/08 03:45:38;;;;;;;17.95;10.43;;;1.60;66.10;;;;;;5088847;28;20286;-69
2021/01/08 03:48:05;;;;;;;13.85;8.63;;;1.60;65.80;;;;;;5072323;28;20190;-68
2021/01/08 03:50:32;;;;;;;13.63;9.35;;;1.50;65.50;;;;;;5073469;28;20221;-68
2021/01/08 03:52:59;;;;;;;13.63;9.05;;;1.50;65.50;;;;;;5092156;28;20636;-68
2021/01/08 03:55:26;;;;;;;16.98;10.80;;;1.60;65.60;;;;;;5091744;28;20224;-68
2021/01/08 03:57:52;;;;;;;16.83;10.05;;;1.60;65.10;;;;;;5052219;28;20191;-69
2021/01/08 04:00:20;;;;;;;16.50;10.00;;;1.70;65.30;;;;;;5052056;28;20213;-69
2021/01/08 04:02:47;;;;;;;13.35;9.27;;;1.70;65.00;;;;;;5090231;28;20227;-68
2021/01/08 04:05:13;;;;;;;17.40;11.02;;;1.80;64.50;;;;;;5092499;28;20276;-70
2021/01/08 04:07:40;;;;;;;17.35;11.25;;;1.80;64.50;;;;;;5074320;28;20209;-69
2021/01/08 04:10:09;;;;;;;17.70;10.80;;;1.70;64.30;;;;;;5086693;28;20185;-68
2021/01/08 04:12:35;;;;;;;17.42;10.18;;;1.70;64.40;;;;;;5092563;28;20575;-68
2021/01/08 04:15:03;;;;;;;13.85;9.82;;;1.70;64.90;;;;;;5078319;28;20224;-68
2021/01/08 04:17:29;;;;;;;15.70;8.90;;;1.70;64.70;;;;;;5072466;28;20193;-68
2021/01/08 04:19:56;;;;;;;15.52;10.00;;;1.70;64.70;;;;;;5083785;28;20185;-68
2021/01/08 04:22:22;;;;;;;11.40;9.18;;;1.80;64.70;;;;;;5092355;28;20189;-76
2021/01/08 04:24:49;;;;;;;15.18;9.40;;;1.80;64.30;;;;;;5081682;28;20194;-69
2021/01/08 04:27:17;;;;;;;13.32;8.70;;;1.80;63.70;;;;;;5071935;28;20193;-69
2021/01/08 04:29:43;;;;;;;12.20;8.98;;;1.80;63.30;;;;;;5080277;28;20190;-68
2021/01/08 04:32:10;;;;;;;13.75;8.95;;;1.90;63.10;;;;;;5092352;28;20192;-69
2021/01/08 04:34:36;;;;;;;11.88;7.47;;;1.90;63.10;;;;;;5084599;28;20218;-69
2021/01/08 04:37:03;;;;;;;13.65;7.32;;;1.70;63.20;;;;;;5076008;28;20188;-68
2021/01/08 04:39:30;;;;;;;19.00;9.70;;;1.50;63.80;;;;;;5092247;28;20193;-68
2021/01/08 04:41:57;;;;;;;12.52;6.57;;;1.50;64.30;;;;;;5090375;28;20190;-68
2021/01/08 04:44:25;;;;;;;12.75;8.25;;;1.50;64.60;;;;;;5075408;28;20197;-69
2021/01/08 04:46:53;;;;;;;12.27;7.93;;;1.50;64.50;;;;;;5076604;28;20664;-69
2021/01/08 04:49:20;;;;;;;13.90;8.68;;;1.50;64.20;;;;;;5095665;28;20204;-68
2021/01/08 04:51:47;;;;;;;15.48;10.07;;;1.40;64.60;;;;;;5095541;28;20193;-69
2021/01/08 04:54:14;;;;;;;13.77;8.38;;;1.40;64.50;;;;;;5055425;28;20198;-68
2021/01/08 04:56:44;;;;;;;13.88;9.80;;;1.40;64.70;;;;;;5055356;28;20222;-68
2021/01/08 04:59:10;;;;;;;15.32;9.18;;;1.40;64.80;;;;;;5093801;28;20196;-68
2021/01/08 05:01:38;;;;;;;14.55;8.65;;;1.40;64.90;;;;;;5095497;28;20193;-68
2021/01/08 05:04:05;;;;;;;13.65;8.38;;;1.50;65.10;;;;;;5076979;28;20190;-68
2021/01/08 05:06:32;;;;;;;16.88;10.25;;;1.50;65.10;;;;;;5090275;28;20235;-69
2021/01/08 05:08:59;;;;;;;19.90;11.13;;;1.60;65.00;;;;;;5095423;28;20196;-68
2021/01/08 05:11:27;;;;;;;17.52;11.82;;;1.60;64.60;;;;;;5081022;28;20644;-69
2021/01/08 05:13:56;;;;;;;16.55;9.48;;;1.60;64.70;;;;;;5074968;28;20224;-68
2021/01/08 05:16:24;;;;;;;13.23;8.88;;;1.60;64.90;;;;;;5087089;28;20573;-68
2021/01/08 05:18:53;;;;;;;13.10;8.38;;;1.50;64.70;;;;;;5095310;28;20193;-68
2021/01/08 05:21:20;;;;;;;15.95;8.80;;;1.60;64.80;;;;;;5083138;28;20243;-68
2021/01/08 05:23:48;;;;;;;12.52;8.45;;;1.60;64.60;;;;;;5074987;28;20659;-69
2021/01/08 05:26:16;;;;;;;12.65;7.95;;;1.60;64.70;;;;;;5084825;28;20234;-68
2021/01/08 05:28:47;;;;;;;12.18;7.32;;;1.60;64.50;;;;;;5094944;28;20193;-68
2021/01/08 05:31:15;;;;;;;13.63;8.27;;;1.60;64.20;;;;;;5084813;28;20727;-68
2021/01/08 05:33:42;;;;;;;17.95;11.45;;;1.60;63.90;;;;;;5081302;28;20363;-68
2021/01/08 05:36:11;;;;;;;19.45;10.95;;;1.60;63.50;;;;;;5094899;28;20217;-68
2021/01/08 05:38:41;;;;;;;13.25;8.98;;;1.60;63.70;;;;;;5088632;28;20243;-68
2021/01/08 05:41:10;;;;;;;15.32;10.20;;;1.60;63.50;;;;;;5074643;28;20185;-68
2021/01/08 05:43:39;;;;;;;13.02;8.25;;;1.60;63.40;;;;;;5078944;28;20192;-68
2021/01/08 05:46:11;;;;;;;14.57;9.02;;;1.60;63.00;;;;;;5094813;28;20239;-68
2021/01/08 05:48:40;;;;;;;14.15;8.93;;;1.70;63.40;;;;;;5089511;28;20177;-68
2021/01/08 05:51:07;;;;;;;13.48;8.95;;;1.70;63.50;;;;;;5074213;28;20186;-68
2021/01/08 05:53:37;;;;;;;14.35;9.35;;;1.70;63.10;;;;;;5077272;28;20185;-68
2021/01/08 05:56:04;;;;;;;14.20;8.30;;;1.70;63.10;;;;;;5094330;28;20778;-69
2021/01/08 05:58:30;;;;;;;16.85;9.40;;;1.80;63.50;;;;;;5091564;28;20201;-69
2021/01/08 06:00:58;;;;;;;14.13;9.07;;;1.90;63.70;;;;;;5074026;28;20221;-69
2021/01/08 06:03:26;;;;;;;16.20;8.55;;;1.90;63.90;;;;;;5093022;28;20203;-70
2021/01/08 06:05:54;;;;;;;16.92;9.38;;;2.00;64.10;;;;;;5074223;28;20197;-69
2021/01/08 06:08:24;;;;;;;17.63;9.55;;;2.00;64.30;;;;;;5090545;28;20212;-68
2021/01/08 06:10:54;;;;;;;14.43;8.63;;;2.00;64.50;;;;;;5094166;28;20200;-70
2021/01/08 06:13:22;;;;;;;17.50;10.30;;;2.00;64.50;;;;;;5075904;28;20214;-70
2021/01/08 06:15:51;;;;;;;16.98;9.88;;;2.10;64.80;;;;;;5073848;28;20221;-68
2021/01/08 06:18:20;;;;;;;18.85;12.13;;;2.10;65.10;;;;;;5090423;28;20655;-68
2021/01/08 06:20:49;;;;;;;15.15;10.93;;;2.10;66.00;;;;;;5094067;28;20654;-68
2021/01/08 06:23:38;;;;;;;22.92;13.57;;;2.10;66.40;;;;;;5091850;28;20181;-69
2021/01/08 06:26:07;;;;;;;18.65;12.13;;;2.10;66.80;;;;;;5093921;28;20192;-68
2021/01/08 06:28:39;;;;;;;19.27;12.30;;;2.20;67.20;;;;;;5075518;28;20186;-69
2021/01/08 06:31:10;;;;;;;19.52;12.07;;;2.20;68.40;;;;;;5073596;28;20197;-68
2021/01/08 06:33:38;;;;;;;18.17;11.63;;;2.20;68.00;;;;;;5090336;28;20221;-68
2021/01/08 06:36:16;;;;;;;22.95;11.90;;;2.20;68.30;;;;;;5090575;28;20263;-69
2021/01/08 06:38:47;;;;;;;19.42;10.63;;;2.20;68.60;;;;;;5073300;28;20185;-68
2021/01/08 06:41:16;;;;;;;22.70;12.43;;;2.20;69.10;;;;;;5090933;28;20185;-68
2021/01/08 06:43:56;;;;;;;21.50;11.27;;;2.20;69.80;;;;;;5093536;28;20192;-69
2021/01/08 06:46:30;;;;;;;20.48;11.23;;;2.30;70.40;;;;;;5074949;28;20186;-69
2021/01/08 06:48:59;;;;;;;16.17;10.98;;;2.30;71.50;;;;;;5073210;28;20197;-69
2021/01/08 06:51:28;;;;;;;22.52;13.15;;;2.20;71.30;;;;;;5090679;28;20189;-68
2021/01/08 06:54:03;;;;;;;17.02;10.93;;;2.10;71.70;;;;;;5093237;28;20281;-69
2021/01/08 06:56:35;;;;;;;17.80;10.95;;;2.10;72.60;;;;;;5074275;28;20305;-69
2021/01/08 06:59:03;;;;;;;16.90;10.25;;;2.10;72.60;;;;;;5076493;28;20259;-69
2021/01/08 07:01:54;;;;;;;17.15;11.45;;;2.10;72.20;;;;;;5093407;28;20242;-68
2021/01/08 07:04:26;;;;;;;16.40;10.23;;;1.80;71.60;;;;;;5086585;28;20273;-68
2021/01/08 07:06:54;;;;;;;17.67;12.43;;;1.80;71.30;;;;;;5072998;28;20292;-70
2021/01/08 07:09:29;;;;;;;21.00;13.15;;;1.70;71.10;;;;;;5074035;28;20190;-68
2021/01/08 07:11:58;;;;;;;17.83;12.05;;;1.80;71.20;;;;;;5073200;28;20530;-68
2021/01/08 07:14:25;;;;;;;16.35;11.48;;;1.60;70.80;;;;;;5079437;28;20188;-68
2021/01/08 07:16:53;;;;;;;21.40;12.55;;;1.50;71.40;;;;;;5092975;28;20307;-68
2021/01/08 07:19:22;;;;;;;23.42;13.70;;;1.40;71.60;;;;;;5086970;28;20189;-68
2021/01/08 07:21:50;;;;;;;17.75;12.02;;;1.40;71.60;;;;;;5072388;28;20189;-69
2021/01/08 07:24:18;;;;;;;20.63;11.13;;;1.40;72.20;;;;;;5076895;28;20189;-72
2021/01/08 07:26:46;;;;;;;20.40;12.30;;;1.40;71.70;;;;;;5090926;28;20231;-68
2021/01/08 07:29:14;;;;;;;19.65;12.20;;;1.40;71.60;;;;;;5082729;28;20186;-69
2021/01/08 07:31:41;;;;;;;23.15;12.10;;;1.30;71.60;;;;;;5070465;28;20198;-69
2021/01/08 07:34:09;;;;;;;23.17;10.65;;;1.20;72.10;;;;;;5070539;28;20221;-68
2021/01/08 07:36:37;;;;;;;20.58;12.35;;;1.20;72.50;;;;;;5070677;28;20225;-69
2021/01/08 07:39:06;;;;;;;21.48;12.40;;;1.20;72.30;;;;;;5071336;28;20194;-68
2021/01/08 07:41:37;;;;;;;20.13;12.23;;;1.30;72.50;;;;;;5070577;28;20193;-68
2021/01/08 07:44:20;;;;;;;21.27;13.80;;;1.20;72.10;;;;;;5070368;28;20267;-71
2021/01/08 07:46:47;;;;;;;19.02;11.27;;;1.20;72.80;;;;;;5068679;28;20196;-69
2021/01/08 07:49:26;;;;;;;15.98;10.10;;;1.30;72.80;;;;;;5070943;28;20708;-68
2021/01/08 07:51:53;;;;;;;18.67;10.75;;;1.30;72.30;;;;;;5070602;28;20201;-69
2021/01/08 07:54:53;;;;;;;14.57;9.00;;;1.40;72.40;;;;;;5070940;28;20201;-69
2021/01/08 07:57:20;;;;;;;13.50;8.00;;;1.50;71.50;;;;;;5070643;28;20751;-68
2021/01/08 07:59:46;;;;;;;10.95;6.90;;;1.50;71.00;;;;;;5074192;28;20694;-68
2021/01/08 08:02:14;;;;;;;9.75;6.35;;;1.60;70.70;;;;;;5073064;28;20189;-70
2021/01/08 08:04:42;;;;;;;12.20;6.15;;;1.70;70.50;;;;;;5070717;28;20194;-68
2021/01/08 08:07:11;;;;;;;9.02;5.45;;;1.80;70.10;;;;;;5070542;28;20194;-68
2021/01/08 08:09:39;;;;;;;8.35;5.78;;;1.80;69.50;;;;;;5070792;28;20292;-70
2021/01/08 08:12:10;;;;;;;10.90;5.63;;;1.90;69.20;;;;;;5070637;28;20185;-69
2021/01/08 08:14:37;;;;;;;9.23;5.43;;;1.90;68.60;;;;;;5067529;28;20284;-69
2021/01/08 08:17:04;;;;;;;7.85;4.88;;;2.00;68.50;;;;;;5071890;28;20275;-74
2021/01/08 08:19:35;;;;;;;10.25;6.10;;;2.00;67.90;;;;;;5073141;28;20267;-69
2021/01/08 08:22:02;;;;;;;8.63;5.82;;;2.10;67.80;;;;;;5074333;28;20240;-69
2021/01/08 08:24:29;;;;;;;8.10;5.35;;;2.20;67.60;;;;;;5072742;28;20194;-71
2021/01/08 08:26:55;;;;;;;9.98;6.20;;;2.20;67.00;;;;;;5070993;28;20190;-70
2021/01/08 08:29:25;;;;;;;10.30;6.00;;;2.20;66.90;;;;;;5073951;28;20189;-70
2021/01/08 08:31:52;;;;;;;8.05;5.78;;;2.20;66.70;;;;;;5073315;28;20285;-70
2021/01/08 08:34:28;;;;;;;6.72;5.35;;;2.30;65.90;;;;;;5071771;28;20222;-69
2021/01/08 08:37:05;;;;;;;12.02;7.28;;;2.40;65.90;;;;;;5069979;28;20221;-70
2021/01/08 08:39:32;;;;;;;8.10;5.53;;;2.40;65.00;;;;;;5074117;28;20272;-70
2021/01/08 08:41:59;;;;;;;9.65;5.65;;;2.40;65.30;;;;;;5076515;28;20230;-67
2021/01/08 08:44:25;;;;;;;8.15;5.32;;;2.50;65.50;;;;;;5074715;28;20189;-69
2021/01/08 08:46:53;;;;;;;8.55;5.95;;;2.60;65.30;;;;;;5077173;28;20201;-69
2021/01/08 08:49:21;;;;;;;11.57;6.93;;;2.60;64.90;;;;;;5071789;28;20628;-74
2021/01/08 08:51:49;;;;;;;11.25;7.70;;;2.70;64.90;;;;;;5072054;28;20185;-68
2021/01/08 08:54:16;;;;;;;9.90;6.65;;;2.80;64.60;;;;;;5073378;28;20202;-67
2021/01/08 08:56:54;;;;;;;8.90;6.05;;;2.90;64.30;;;;;;5073371;28;20213;-72
2021/01/08 08:59:36;;;;;;;10.23;7.38;;;2.90;64.00;;;;;;5073292;28;20189;-70
2021/01/08 09:02:04;;;;;;;8.40;5.97;;;3.00;63.90;;;;;;5072122;28;20194;-68
2021/01/08 09:04:30;;;;;;;10.77;6.15;;;3.20;63.20;;;;;;5072636;28;20207;-68
2021/01/08 09:07:00;;;;;;;9.13;6.35;;;3.30;63.20;;;;;;5074276;28;20247;-68
2021/01/08 09:09:32;;;;;;;10.10;6.50;;;3.50;63.00;;;;;;5074040;28;20695;-68
2021/01/08 09:12:27;;;;;;;10.00;5.90;;;3.60;61.80;;;;;;5073116;28;20185;-69
2021/01/08 09:15:01;;;;;;;9.38;5.88;;;3.70;61.30;;;;;;5072478;28;20190;-68
2021/01/08 09:17:32;;;;;;;9.80;5.40;;;3.80;60.40;;;;;;5073397;28;20197;-68
2021/01/08 09:20:02;;;;;;;10.32;6.13;;;3.90;60.10;;;;;;5072697;28;20253;-68
2021/01/08 09:22:34;;;;;;;9.25;6.05;;;4.10;60.30;;;;;;5069546;28;20197;-68
2021/01/08 09:25:02;;;;;;;10.38;6.60;;;4.10;59.30;;;;;;5071961;28;20534;-68
2021/01/08 09:27:29;;;;;;;8.30;5.20;;;4.20;59.80;;;;;;5072729;28;20193;-69
2021/01/08 09:30:06;;;;;;;7.78;5.18;;;4.30;58.10;;;;;;5070903;28;20254;-69
2021/01/08 09:32:34;;;;;;;8.80;6.05;;;4.30;58.00;;;;;;5073457;28;20279;-68
2021/01/08 09:35:03;;;;;;;9.57;6.35;;;4.20;56.60;;;;;;5075580;28;20241;-69
2021/01/08 09:37:38;;;;;;;12.63;5.70;;;4.00;56.40;;;;;;5072656;28;20243;-68
2021/01/08 09:40:23;;;;;;;14.23;7.00;;;3.80;55.60;;;;;;5070398;28;20200;-68
2021/01/08 09:42:50;;;;;;;11.52;6.72;;;3.70;56.40;;;;;;5072971;28;20186;-68
2021/01/08 09:45:22;;;;;;;11.23;6.57;;;3.60;56.90;;;;;;5076175;28;20193;-68
2021/01/08 09:47:49;;;;;;;24.92;11.45;;;3.60;57.40;;;;;;5069204;28;20241;-68
2021/01/08 09:50:24;;;;;;;15.45;9.40;;;3.60;56.20;;;;;;5073205;28;20270;-68
2021/01/08 09:52:51;;;;;;;9.77;6.05;;;3.60;56.50;;;;;;5072174;28;20236;-69
2021/01/08 09:55:26;;;;;;;25.25;13.27;;;3.60;56.60;;;;;;5072152;28;20304;-74
2021/01/08 09:57:58;;;;;;;8.45;5.80;;;3.60;57.30;;;;;;5068535;28;20557;-72
2021/01/08 10:00:32;;;;;;;9.50;6.65;;;3.50;56.80;;;;;;5073202;28;20185;-68
2021/01/08 10:02:59;;;;;;;9.20;6.70;;;3.60;57.50;;;;;;5071726;28;20286;-68
2021/01/08 10:05:28;;;;;;;9.57;6.07;;;3.70;57.20;;;;;;5071901;28;20650;-68
2021/01/08 10:07:56;;;;;;;14.07;9.60;;;3.60;56.60;;;;;;5071199;28;20236;-68
2021/01/08 10:10:40;;;;;;;12.88;8.10;;;3.70;56.10;;;;;;5071943;28;20202;-70
2021/01/08 10:13:15;;;;;;;13.95;9.88;;;3.80;56.70;;;;;;5072141;28;20190;-67
2021/01/08 10:15:44;;;;;;;11.18;6.82;;;3.80;57.00;;;;;;5069654;28;20601;-67
2021/01/08 10:18:11;;;;;;;15.70;10.32;;;3.70;56.00;;;;;;5071229;28;20197;-68
2021/01/08 10:20:49;;;;;;;12.02;7.80;;;3.60;57.00;;;;;;5071558;28;20213;-67
2021/01/08 10:23:16;;;;;;;10.10;6.78;;;3.60;57.00;;;;;;5071444;28;20186;-68
2021/01/08 10:25:44;;;;;;;12.15;7.82;;;3.60;56.90;;;;;;5069192;28;20204;-68
2021/01/08 10:28:17;;;;;;;10.32;6.90;;;3.60;57.30;;;;;;5071745;28;20204;-68
2021/01/08 10:30:45;;;;;;;12.82;8.43;;;3.70;57.30;;;;;;5071381;28;20200;-68
2021/01/08 10:33:13;;;;;;;10.60;6.80;;;3.80;56.50;;;;;;5074861;28;20198;-68
2021/01/08 10:35:44;;;;;;;8.88;5.80;;;3.80;56.50;;;;;;5075036;28;20252;-76
2021/01/08 10:38:11;;;;;;;10.60;6.28;;;3.90;56.50;;;;;;5074034;28;20198;-68
2021/01/08 10:40:37;;;;;;;9.40;6.40;;;4.00;56.60;;;;;;5071713;28;20189;-68
2021/01/08 10:43:05;;;;;;;10.35;5.95;;;4.10;55.90;;;;;;5073728;28;20193;-69
2021/01/08 10:45:32;;;;;;;10.10;5.97;;;4.20;56.50;;;;;;5075902;28;20194;-69
2021/01/08 10:47:58;;;;;;;9.90;6.20;;;4.30;56.20;;;;;;5078256;28;20208;-69
2021/01/08 10:50:24;;;;;;;7.68;6.10;;;4.30;54.90;;;;;;5072685;28;20201;-68
2021/01/08 10:52:51;;;;;;;9.05;6.30;;;4.30;55.60;;;;;;5075240;28;20246;-69
2021/01/08 10:55:17;;;;;;;10.68;7.35;;;4.30;55.00;;;;;;5074317;28;20705;-68
2021/01/08 10:57:44;;;;;;;11.27;6.45;;;4.40;55.40;;;;;;5073718;28;20579;-76
2021/01/08 11:00:16;;;;;;;11.10;7.05;;;4.40;54.30;;;;;;5076447;28;20198;-69
2021/01/08 11:02:43;;;;;;;8.18;6.55;;;4.50;54.80;;;;;;5075626;28;20201;-69
2021/01/08 11:05:11;;;;;;;7.85;5.82;;;4.50;54.70;;;;;;5078030;28;20193;-68
2021/01/08 11:07:37;;;;;;;7.72;5.55;;;4.60;54.80;;;;;;5077049;28;20579;-68
2021/01/08 11:10:05;;;;;;;9.07;5.90;;;4.70;54.80;;;;;;5074568;28;20198;-71
2021/01/08 11:12:33;;;;;;;8.98;6.13;;;4.80;54.60;;;;;;5075484;28;20197;-69
2021/01/08 11:15:00;;;;;;;9.50;6.15;;;4.80;54.30;;;;;;5076933;28;21326;-70
2021/01/08 11:17:28;;;;;;;8.15;5.35;;;4.80;53.90;;;;;;5076557;28;20194;-69
2021/01/08 11:19:54;;;;;;;8.32;5.70;;;4.90;54.00;;;;;;5077921;28;20195;-69
2021/01/08 11:22:20;;;;;;;7.97;5.93;;;4.90;53.30;;;;;;5075515;28;20189;-69
2021/01/08 11:24:47;;;;;;;8.90;5.85;;;4.90;53.50;;;;;;5077575;28;20523;-68
2021/01/08 11:27:14;;;;;;;8.15;5.65;;;4.90;53.30;;;;;;5078618;28;20254;-68
2021/01/08 11:29:41;;;;;;;8.43;6.00;;;5.00;53.40;;;;;;5075781;28;20185;-69
2021/01/08 11:32:08;;;;;;;8.68;5.75;;;5.00;53.30;;;;;;5077035;28;20288;-68
2021/01/08 11:34:38;;;;;;;11.10;6.82;;;5.10;52.80;;;;;;5077413;28;20221;-69
2021/01/08 11:37:05;;;;;;;8.60;5.82;;;5.10;52.60;;;;;;5076181;28;20702;-68
2021/01/08 11:39:32;;;;;;;7.97;5.10;;;5.10;52.20;;;;;;5074669;28;20247;-69
2021/01/08 11:41:59;;;;;;;8.52;5.60;;;5.10;52.50;;;;;;5079280;28;20189;-69
2021/01/08 11:44:26;;;;;;;7.57;4.53;;;5.20;51.90;;;;;;5075953;28;20198;-70
2021/01/08 11:46:53;;;;;;;7.53;4.80;;;5.10;51.80;;;;;;5077576;28;20201;-68
2021/01/08 11:49:19;;;;;;;5.40;4.13;;;5.10;51.90;;;;;;5073683;28;20193;-69
2021/01/08 11:51:47;;;;;;;7.65;5.32;;;5.10;51.20;;;;;;5077021;28;20647;-68
2021/01/08 11:54:14;;;;;;;6.10;4.53;;;5.10;51.90;;;;;;5084177;28;20678;-68
2021/01/08 11:56:40;;;;;;;6.47;5.05;;;5.10;52.20;;;;;;5078651;28;20228;-69
2021/01/08 11:59:07;;;;;;;7.82;4.70;;;5.10;50.40;;;;;;5078186;28;20197;-70
2021/01/08 12:01:34;;;;;;;6.88;4.65;;;5.10;51.40;;;;;;5069263;28;20636;-68
2021/01/08 12:04:01;;;;;;;7.70;5.63;;;5.10;51.70;;;;;;5079327;28;20201;-69
2021/01/08 12:06:29;;;;;;;8.25;5.10;;;5.20;51.90;;;;;;5081705;28;20222;-68
2021/01/08 12:08:57;;;;;;;7.55;5.15;;;5.20;51.60;;;;;;5078783;28;20586;-68
2021/01/08 12:11:24;;;;;;;6.13;4.20;;;5.20;51.50;;;;;;5069093;28;20201;-69
2021/01/08 12:13:51;;;;;;;7.65;5.25;;;5.20;51.70;;;;;;5080020;28;20309;-69
2021/01/08 12:16:24;;;;;;;8.65;5.10;;;5.20;51.70;;;;;;5079373;28;20347;-68
2021/01/08 12:18:51;;;;;;;6.43;5.03;;;5.20;51.80;;;;;;5079559;28;20201;-69
2021/01/08 12:21:17;;;;;;;8.57;5.43;;;5.30;51.40;;;;;;5081142;28;20206;-68
2021/01/08 12:23:44;;;;;;;8.70;5.50;;;5.30;51.10;;;;;;5081614;28;20197;-68
2021/01/08 12:26:15;;;;;;;7.35;4.70;;;5.30;51.50;;;;;;5078956;28;20580;-68
2021/01/08 12:28:41;;;;;;;7.07;4.95;;;5.30;51.20;;;;;;5080470;28;20193;-68
2021/01/08 12:31:08;;;;;;;7.38;5.20;;;5.30;50.80;;;;;;5078804;28;20683;-68
2021/01/08 12:33:34;;;;;;;7.82;4.95;;;5.30;50.80;;;;;;5079136;28;20225;-68
2021/01/08 12:36:01;;;;;;;10.07;7.28;;;5.30;50.60;;;;;;5078139;28;20221;-69
2021/01/08 12:38:27;;;;;;;7.68;4.93;;;5.30;49.90;;;;;;5078708;28;20197;-69
2021/01/08 12:40:54;;;;;;;7.97;6.53;;;5.30;50.30;;;;;;5075860;28;20588;-69
2021/01/08 12:43:22;;;;;;;6.55;4.70;;;5.20;50.90;;;;;;5075976;28;20189;-70
2021/01/08 12:45:49;;;;;;;6.38;3.97;;;5.20;50.10;;;;;;5070536;28;20648;-72
2021/01/08 12:48:16;;;;;;;6.90;4.03;;;5.20;49.60;;;;;;5075524;28;20202;-69
2021/01/08 12:50:43;;;;;;;8.57;4.43;;;5.20;49.20;;;;;;5070426;28;20201;-69
2021/01/08 12:53:09;;;;;;;5.80;3.78;;;5.20;49.00;;;;;;5075323;28;20193;-70
2021/01/08 12:55:36;;;;;;;8.07;4.10;;;5.10;49.00;;;;;;5074754;28;20258;-73